Time;durP1;ratioP1;P1;durP2;ratioP2;P2;SDS_P1;SDS_P2;PMS_P1;PMS_P2;Temp;Humidity;BMP_temperature;BMP_pressure;BME280_temperature;BME280_humidity;BME280_pressure;Samples;Min_cycle;Max_cycle;Signal;HPM_P1;HPM_P2
2024/02/22 00:02:11;;;;;;;3.63;2.13;;;8.40;99.90;;;;;;7583629;19;20123;-74
2024/02/22 00:04:44;;;;;;;3.42;2.13;;;8.40;99.90;;;;;;7601822;19;20934;-72
2024/02/22 00:07:16;;;;;;;2.88;1.73;;;8.40;99.90;;;;;;7571088;19;20090;-74
2024/02/22 00:09:49;;;;;;;3.28;1.77;;;8.30;99.90;;;;;;7592555;19;20020;-72
2024/02/22 00:12:21;;;;;;;3.78;1.60;;;8.40;99.90;;;;;;7591344;19;20022;-71
2024/02/22 00:14:55;;;;;;;4.43;1.60;;;8.50;99.90;;;;;;7595053;19;20022;-72
2024/02/22 00:17:28;;;;;;;5.15;1.65;;;8.50;99.90;;;;;;7587839;19;21595;-74
2024/02/22 00:20:02;;;;;;;4.38;1.70;;;8.50;99.90;;;;;;7583565;19;20106;-72
2024/02/22 00:22:35;;;;;;;3.38;1.77;;;8.50;99.90;;;;;;7585192;19;20047;-72
2024/02/22 00:25:08;;;;;;;1.60;1.27;;;8.50;99.90;;;;;;7566481;19;20018;-75
2024/02/22 00:27:41;;;;;;;4.13;1.58;;;8.50;99.90;;;;;;7591964;19;20014;-72
2024/02/22 00:30:14;;;;;;;3.03;1.45;;;8.50;99.90;;;;;;7593702;19;20014;-72
2024/02/22 00:32:51;;;;;;;2.00;1.30;;;8.40;99.90;;;;;;7582942;19;21142;-72
2024/02/22 00:35:24;;;;;;;2.65;1.40;;;8.40;99.90;;;;;;7602523;19;20090;-72
2024/02/22 00:37:57;;;;;;;3.30;1.75;;;8.30;99.90;;;;;;7596536;19;20086;-72
2024/02/22 00:40:30;;;;;;;2.55;1.70;;;8.40;99.90;;;;;;7600732;19;20022;-72
2024/02/22 00:43:02;;;;;;;2.72;1.70;;;8.40;99.90;;;;;;7598061;19;20018;-72
2024/02/22 00:45:35;;;;;;;6.63;3.10;;;8.40;99.90;;;;;;7584932;19;20689;-72
2024/02/22 00:48:07;;;;;;;6.40;2.55;;;8.30;99.90;;;;;;7588137;19;20014;-72
2024/02/22 00:50:40;;;;;;;13.30;3.00;;;8.30;99.90;;;;;;7602517;19;20047;-72
2024/02/22 00:53:13;;;;;;;9.00;3.22;;;8.40;99.90;;;;;;7581717;19;20053;-72
2024/02/22 00:55:45;;;;;;;3.88;2.03;;;8.40;99.90;;;;;;7567063;19;20022;-75
2024/02/22 00:58:18;;;;;;;4.32;2.30;;;8.40;99.90;;;;;;7595066;19;20130;-72
2024/02/22 01:00:50;;;;;;;4.45;1.58;;;8.40;99.90;;;;;;7585227;19;20843;-74
2024/02/22 01:03:23;;;;;;;2.90;1.38;;;8.40;99.90;;;;;;7596317;19;20029;-74
2024/02/22 01:05:55;;;;;;;4.00;1.70;;;8.40;99.90;;;;;;7376227;19;21214;-71
2024/02/22 01:08:28;;;;;;;2.42;1.63;;;8.40;99.90;;;;;;7131598;19;21886;-72
2024/02/22 01:11:02;;;;;;;3.50;1.63;;;8.40;99.90;;;;;;7056100;19;20022;-72
2024/02/22 01:13:36;;;;;;;1.58;1.10;;;8.40;99.90;;;;;;7002633;19;20740;-74
2024/02/22 01:16:10;;;;;;;1.85;1.40;;;8.50;99.90;;;;;;6949226;19;20480;-72
2024/02/22 01:18:43;;;;;;;8.40;1.02;;;8.50;99.90;;;;;;6965127;19;22090;-72
2024/02/22 01:21:16;;;;;;;1.40;1.10;;;8.60;99.90;;;;;;6997058;19;21385;-72
2024/02/22 01:23:49;;;;;;;1.42;1.10;;;8.60;99.90;;;;;;6959592;19;21331;-69
2024/02/22 01:26:23;;;;;;;2.10;0.90;;;8.80;99.90;;;;;;7057460;19;20665;-74
2024/02/22 01:28:56;;;;;;;1.27;0.85;;;8.90;99.90;;;;;;6990815;19;20022;-74
2024/02/22 01:31:29;;;;;;;1.15;0.60;;;9.00;99.90;;;;;;7027033;19;20456;-72
2024/02/22 01:34:02;;;;;;;1.25;0.40;;;9.10;99.90;;;;;;6979220;19;20930;-72
2024/02/22 01:36:35;;;;;;;5.30;0.40;;;9.40;99.90;;;;;;7047843;19;21805;-73
2024/02/22 01:39:09;;;;;;;0.55;0.55;;;9.70;99.90;;;;;;7023266;19;21057;-73
2024/02/22 01:41:43;;;;;;;0.90;0.60;;;9.80;99.90;;;;;;7004732;19;21486;-72
2024/02/22 01:44:15;;;;;;;;;;;9.80;99.90;;;;;;6992894;19;21867;-73
2024/02/22 01:46:48;;;;;;;1.00;0.60;;;9.80;99.90;;;;;;7044153;19;21680;-72
2024/02/22 01:49:26;;;;;;;2.15;0.85;;;9.80;99.90;;;;;;7030438;19;21839;-72
2024/02/22 01:52:01;;;;;;;1.38;1.00;;;9.80;99.90;;;;;;7136148;19;21141;-74
2024/02/22 01:54:34;;;;;;;1.33;0.93;;;9.80;99.90;;;;;;7112263;19;21246;-74
2024/02/22 01:57:09;;;;;;;1.75;1.00;;;9.70;99.90;;;;;;7099885;19;20942;-72
2024/02/22 01:59:43;;;;;;;2.85;1.15;;;9.60;99.90;;;;;;7120419;19;20086;-74
2024/02/22 02:02:16;;;;;;;3.40;1.20;;;9.50;99.90;;;;;;7156455;19;21063;-74
2024/02/22 02:04:55;;;;;;;1.83;1.10;;;9.40;99.90;;;;;;7201657;19;20609;-74
2024/02/22 02:07:28;;;;;;;1.35;1.10;;;9.30;99.90;;;;;;7595348;19;20070;-74
2024/02/22 02:10:03;;;;;;;1.70;1.02;;;9.20;99.90;;;;;;7600534;19;20490;-72
2024/02/22 02:12:37;;;;;;;1.30;0.98;;;9.30;99.90;;;;;;7596769;19;20082;-74
2024/02/22 02:15:10;;;;;;;;;;;9.20;99.90;;;;;;7601510;19;20014;-72
2024/02/22 02:17:43;;;;;;;4.18;1.08;;;9.20;99.90;;;;;;7599581;19;19960;-74
2024/02/22 02:20:17;;;;;;;2.50;1.13;;;9.20;99.90;;;;;;7575128;19;20029;-74
2024/02/22 02:22:55;;;;;;;1.73;1.02;;;9.30;99.90;;;;;;7595866;19;20558;-74
2024/02/22 02:25:30;;;;;;;2.10;0.80;;;9.30;99.90;;;;;;7596598;19;20018;-71
2024/02/22 02:28:03;;;;;;;3.08;0.90;;;9.30;99.90;;;;;;7596777;19;20094;-74
2024/02/22 02:30:36;;;;;;;1.85;1.10;;;9.30;99.90;;;;;;7584703;19;20612;-72
2024/02/22 02:33:08;;;;;;;1.70;1.02;;;9.30;99.90;;;;;;7599846;19;20022;-72
2024/02/22 02:35:41;;;;;;;2.25;0.82;;;9.40;99.90;;;;;;7585491;19;20021;-74
2024/02/22 02:38:14;;;;;;;1.20;0.77;;;9.40;99.90;;;;;;7598302;19;20014;-74
2024/02/22 02:40:46;;;;;;;1.05;0.70;;;9.50;99.90;;;;;;7600497;19;20055;-72
2024/02/22 02:43:19;;;;;;;1.08;0.73;;;9.50;99.90;;;;;;7601224;19;20015;-74
2024/02/22 02:45:52;;;;;;;0.75;0.40;;;9.40;99.90;;;;;;7589468;19;20022;-74
2024/02/22 02:48:24;;;;;;;0.50;0.40;;;9.40;99.90;;;;;;7596108;19;20015;-74
2024/02/22 02:50:58;;;;;;;0.40;0.40;;;9.40;99.90;;;;;;7593914;19;20105;-74
2024/02/22 02:53:31;;;;;;;0.40;0.35;;;9.50;99.90;;;;;;7586752;19;20022;-74
2024/02/22 02:56:04;;;;;;;1.20;0.80;;;9.50;99.90;;;;;;7600109;19;20413;-73
2024/02/22 02:58:36;;;;;;;1.75;0.52;;;9.60;99.90;;;;;;7594580;19;20488;-74
2024/02/22 03:01:09;;;;;;;1.42;0.40;;;9.70;99.90;;;;;;7590773;19;20059;-73
2024/02/22 03:03:41;;;;;;;0.55;0.50;;;9.80;99.90;;;;;;7591791;19;20029;-74
2024/02/22 03:06:13;;;;;;;0.93;0.50;;;9.80;99.90;;;;;;7597794;19;20010;-73
2024/02/22 03:08:46;;;;;;;1.20;0.55;;;9.80;99.90;;;;;;7588567;19;20362;-73
2024/02/22 03:11:19;;;;;;;1.15;0.70;;;9.80;99.90;;;;;;7582329;19;20036;-74
2024/02/22 03:13:51;;;;;;;0.95;0.70;;;9.70;99.90;;;;;;7602762;19;21065;-73
2024/02/22 03:16:24;;;;;;;1.10;0.75;;;9.60;99.90;;;;;;7599930;19;20018;-73
2024/02/22 03:18:56;;;;;;;1.13;0.80;;;9.60;99.90;;;;;;7589385;19;20015;-73
2024/02/22 03:21:30;;;;;;;1.70;0.77;;;9.60;99.90;;;;;;7596639;19;20856;-73
2024/02/22 03:24:03;;;;;;;3.90;0.80;;;9.60;99.90;;;;;;7597814;19;20022;-73
2024/02/22 03:26:36;;;;;;;2.70;0.98;;;9.60;99.90;;;;;;7597745;19;20074;-73
2024/02/22 03:29:10;;;;;;;1.38;0.85;;;9.50;99.90;;;;;;7601826;19;20019;-73
2024/02/22 03:31:43;;;;;;;1.02;0.73;;;9.50;99.90;;;;;;7585305;19;20048;-74
2024/02/22 03:34:16;;;;;;;1.20;0.98;;;9.50;99.90;;;;;;7600520;19;20022;-74
2024/02/22 03:36:49;;;;;;;1.17;0.70;;;9.60;99.90;;;;;;7579595;19;20025;-74
2024/02/22 03:39:22;;;;;;;1.17;0.70;;;9.50;99.90;;;;;;7573800;19;20770;-74
2024/02/22 03:41:54;;;;;;;3.00;0.85;;;9.50;99.90;;;;;;7588087;19;20033;-73
2024/02/22 03:44:26;;;;;;;0.88;0.70;;;9.50;99.90;;;;;;7597316;19;20018;-73
2024/02/22 03:46:58;;;;;;;4.00;0.70;;;9.50;99.90;;;;;;7591140;19;20529;-73
2024/02/22 03:49:31;;;;;;;1.20;0.73;;;9.50;99.90;;;;;;7587465;19;20018;-74
2024/02/22 03:52:07;;;;;;;1.75;0.70;;;9.50;99.90;;;;;;7595973;19;20018;-73
2024/02/22 03:54:39;;;;;;;1.83;0.90;;;9.50;99.90;;;;;;7595225;19;20018;-73
2024/02/22 03:57:12;;;;;;;1.53;0.93;;;9.50;99.90;;;;;;7598393;19;20044;-73
2024/02/22 03:59:44;;;;;;;2.45;0.68;;;9.60;99.90;;;;;;7586026;19;20087;-73
2024/02/22 04:02:16;;;;;;;1.48;0.70;;;9.70;99.90;;;;;;7590994;19;20023;-73
2024/02/22 04:04:50;;;;;;;0.65;0.60;;;9.70;99.90;;;;;;7593973;19;20020;-73
2024/02/22 04:07:24;;;;;;;;;;;9.60;99.90;;;;;;7591340;19;20872;-73
2024/02/22 04:09:56;;;;;;;1.75;0.98;;;9.50;99.90;;;;;;7599098;19;19923;-73
2024/02/22 04:12:28;;;;;;;1.10;0.70;;;9.40;99.90;;;;;;7611068;19;21232;-73
2024/02/22 04:15:02;;;;;;;0.88;0.60;;;9.40;99.90;;;;;;7606475;19;20022;-73
2024/02/22 04:17:37;;;;;;;2.00;1.05;;;9.40;99.90;;;;;;7606949;19;20046;-74
2024/02/22 04:20:10;;;;;;;1.10;0.80;;;9.30;99.90;;;;;;7607053;19;20024;-73
2024/02/22 04:22:49;;;;;;;1.95;1.00;;;9.30;99.90;;;;;;7603220;19;20016;-74
2024/02/22 04:25:21;;;;;;;1.70;0.90;;;9.20;99.90;;;;;;7600542;19;20014;-73
2024/02/22 04:27:54;;;;;;;1.88;0.93;;;9.10;99.90;;;;;;7603722;19;20134;-74
2024/02/22 04:30:26;;;;;;;3.92;0.70;;;9.10;99.90;;;;;;7562592;19;20672;-75
2024/02/22 04:32:59;;;;;;;1.00;0.90;;;9.00;99.90;;;;;;7588204;19;20022;-73
2024/02/22 04:35:31;;;;;;;2.92;1.13;;;9.00;99.90;;;;;;7606093;19;20149;-74
2024/02/22 04:38:04;;;;;;;1.70;1.00;;;8.90;99.90;;;;;;7601953;19;20013;-73
2024/02/22 04:40:37;;;;;;;1.25;0.80;;;8.90;99.90;;;;;;7605253;19;20015;-74
2024/02/22 04:43:10;;;;;;;2.53;0.93;;;8.90;99.90;;;;;;7608427;19;20021;-73
2024/02/22 04:45:43;;;;;;;2.10;1.03;;;8.80;99.90;;;;;;7602502;19;20015;-73
2024/02/22 04:48:16;;;;;;;5.20;1.20;;;8.70;99.90;;;;;;7609954;19;20527;-73
2024/02/22 04:50:49;;;;;;;1.02;0.88;;;8.80;99.90;;;;;;7602046;19;20132;-73
2024/02/22 04:53:21;;;;;;;2.55;1.08;;;8.80;99.90;;;;;;7609367;19;20026;-73
2024/02/22 04:55:54;;;;;;;2.13;1.20;;;8.70;99.90;;;;;;7605188;19;20459;-73
2024/02/22 04:58:26;;;;;;;1.65;1.05;;;8.60;99.90;;;;;;7595312;19;20667;-73
2024/02/22 05:00:59;;;;;;;1.35;0.90;;;8.60;99.90;;;;;;7598258;19;20626;-73
2024/02/22 05:03:31;;;;;;;1.20;0.80;;;8.60;99.90;;;;;;7605365;19;20022;-73
2024/02/22 05:06:04;;;;;;;3.17;0.93;;;8.60;99.90;;;;;;7604513;19;20018;-73
2024/02/22 05:08:36;;;;;;;2.90;1.20;;;8.60;99.90;;;;;;7605933;19;20006;-73
2024/02/22 05:11:09;;;;;;;1.30;0.70;;;8.60;99.90;;;;;;7591138;19;20018;-73
2024/02/22 05:13:42;;;;;;;2.60;0.97;;;8.60;99.90;;;;;;7605467;19;20174;-73
2024/02/22 05:16:15;;;;;;;2.22;0.85;;;8.60;99.90;;;;;;7605396;19;20794;-73
2024/02/22 05:18:48;;;;;;;4.78;1.05;;;8.60;99.90;;;;;;7593647;19;20011;-74
2024/02/22 05:21:20;;;;;;;5.13;1.02;;;8.60;99.90;;;;;;7598834;19;20024;-74
2024/02/22 05:23:53;;;;;;;4.03;1.08;;;8.70;99.90;;;;;;7583434;19;20091;-72
2024/02/22 05:26:27;;;;;;;2.88;0.95;;;8.60;99.90;;;;;;7579128;19;20261;-73
2024/02/22 05:29:00;;;;;;;1.17;0.90;;;8.60;99.90;;;;;;7573125;19;20019;-73
2024/02/22 05:31:33;;;;;;;3.35;1.40;;;8.50;99.90;;;;;;7590299;19;20015;-74
2024/02/22 05:34:08;;;;;;;6.07;1.40;;;8.50;99.90;;;;;;7598607;19;20029;-74
2024/02/22 05:36:40;;;;;;;2.17;1.40;;;8.40;99.90;;;;;;7572573;19;20018;-74
2024/02/22 05:39:13;;;;;;;2.03;1.20;;;8.40;99.90;;;;;;7600928;19;20480;-73
2024/02/22 05:41:46;;;;;;;1.38;1.10;;;8.40;99.90;;;;;;7595507;19;20486;-74
2024/02/22 05:44:18;;;;;;;2.60;1.20;;;8.40;99.90;;;;;;7606022;19;20019;-73
2024/02/22 05:46:51;;;;;;;6.85;1.42;;;8.50;99.90;;;;;;7594803;19;21194;-74
2024/02/22 05:49:23;;;;;;;1.88;1.00;;;8.60;99.90;;;;;;7595918;19;20052;-74
2024/02/22 05:51:56;;;;;;;3.60;1.05;;;8.50;99.90;;;;;;7586278;19;21334;-74
2024/02/22 05:54:28;;;;;;;1.27;1.02;;;8.50;99.90;;;;;;7592814;19;20033;-73
2024/02/22 05:57:01;;;;;;;2.00;1.20;;;8.40;99.90;;;;;;7590999;19;20022;-74
2024/02/22 05:59:34;;;;;;;1.75;1.00;;;8.40;99.90;;;;;;7586079;19;20018;-74
2024/02/22 06:02:06;;;;;;;1.50;1.00;;;8.50;99.90;;;;;;7573584;19;20034;-73
2024/02/22 06:04:39;;;;;;;1.70;1.10;;;8.40;99.90;;;;;;7557198;19;20034;-73
2024/02/22 06:07:12;;;;;;;2.22;1.25;;;8.40;99.90;;;;;;7572336;19;20026;-73
2024/02/22 06:09:45;;;;;;;1.92;1.20;;;8.50;99.90;;;;;;7593722;19;20030;-73
2024/02/22 06:12:17;;;;;;;2.65;1.20;;;8.50;99.90;;;;;;7590291;19;20990;-74
2024/02/22 06:14:51;;;;;;;2.95;1.80;;;8.40;99.90;;;;;;7558822;19;20018;-75
2024/02/22 06:17:24;;;;;;;2.60;1.73;;;8.30;99.90;;;;;;7573991;19;20086;-74
2024/02/22 06:19:56;;;;;;;2.33;1.50;;;8.30;99.90;;;;;;7575367;19;20016;-73
2024/02/22 06:22:29;;;;;;;5.07;1.30;;;8.30;99.90;;;;;;7549239;19;20276;-75
2024/02/22 06:25:01;;;;;;;3.28;1.92;;;8.30;99.90;;;;;;7573836;19;20018;-72
2024/02/22 06:27:34;;;;;;;5.07;3.80;;;8.30;99.90;;;;;;7609717;19;20010;-75
2024/02/22 06:30:07;;;;;;;9.10;3.47;;;8.30;99.90;;;;;;7586718;19;20018;-75
2024/02/22 06:32:39;;;;;;;5.82;2.83;;;8.40;99.90;;;;;;7581230;19;20014;-75
2024/02/22 06:35:12;;;;;;;4.78;2.40;;;8.30;99.90;;;;;;7593268;19;20018;-73
2024/02/22 06:37:44;;;;;;;2.88;2.05;;;8.30;99.90;;;;;;7611660;19;21051;-75
2024/02/22 06:40:17;;;;;;;3.40;1.85;;;8.30;99.90;;;;;;7600500;19;20016;-73
2024/02/22 06:42:49;;;;;;;4.38;2.40;;;8.40;99.90;;;;;;7592165;19;20006;-73
2024/02/22 06:45:24;;;;;;;6.37;2.63;;;8.50;99.90;;;;;;7595142;19;20057;-73
2024/02/22 06:47:57;;;;;;;3.10;1.83;;;8.60;99.90;;;;;;7592040;19;20093;-74
2024/02/22 06:50:29;;;;;;;5.15;1.98;;;8.50;99.90;;;;;;7596320;19;20010;-74
2024/02/22 06:53:02;;;;;;;3.55;2.08;;;8.50;99.90;;;;;;7596064;19;20654;-74
2024/02/22 06:55:34;;;;;;;3.13;1.75;;;8.40;99.90;;;;;;7603617;19;20022;-73
2024/02/22 06:58:07;;;;;;;3.05;1.83;;;8.50;99.90;;;;;;7591017;19;20014;-73
2024/02/22 07:00:40;;;;;;;2.40;1.63;;;8.50;99.90;;;;;;7587930;19;20049;-73
2024/02/22 07:03:13;;;;;;;4.63;1.92;;;8.60;99.90;;;;;;7581069;19;20010;-74
2024/02/22 07:05:45;;;;;;;3.25;2.22;;;8.60;99.90;;;;;;7602625;19;20018;-74
2024/02/22 07:08:19;;;;;;;3.58;1.95;;;8.60;99.90;;;;;;7598737;19;20014;-73
2024/02/22 07:10:51;;;;;;;;;;;8.60;99.90;;;;;;7576337;19;20026;-74
2024/02/22 07:13:24;;;;;;;3.53;1.98;;;8.50;99.90;;;;;;7598809;19;19911;-73
2024/02/22 07:15:56;;;;;;;3.33;2.08;;;8.60;99.90;;;;;;7579977;19;20609;-73
2024/02/22 07:18:28;;;;;;;3.38;1.90;;;8.60;99.90;;;;;;7594716;19;20523;-73
2024/02/22 07:21:03;;;;;;;4.65;1.90;;;8.60;99.90;;;;;;7596521;19;20010;-73
2024/02/22 07:23:36;;;;;;;3.90;2.30;;;8.60;99.90;;;;;;7584498;19;20025;-72
2024/02/22 07:26:09;;;;;;;5.75;2.30;;;8.50;99.90;;;;;;7593238;19;20018;-73
2024/02/22 07:28:42;;;;;;;4.28;2.17;;;8.50;99.90;;;;;;7598519;19;20029;-72
2024/02/22 07:31:14;;;;;;;3.42;2.10;;;8.50;99.90;;;;;;7560041;19;20030;-73
2024/02/22 07:33:46;;;;;;;5.53;2.70;;;8.50;99.90;;;;;;7585666;19;20018;-72
2024/02/22 07:36:20;;;;;;;6.77;2.57;;;8.50;99.90;;;;;;7593991;19;20039;-73
2024/02/22 07:38:52;;;;;;;5.95;2.17;;;8.40;99.90;;;;;;7609604;19;20395;-73
2024/02/22 07:41:24;;;;;;;3.42;2.20;;;8.40;99.90;;;;;;7607831;19;20025;-73
2024/02/22 07:43:57;;;;;;;2.47;2.05;;;8.40;99.90;;;;;;7609935;19;20503;-73
2024/02/22 07:46:30;;;;;;;8.65;2.47;;;8.40;99.90;;;;;;7610721;19;20021;-73
2024/02/22 07:49:03;;;;;;;4.65;3.05;;;8.40;99.90;;;;;;7600013;19;20010;-73
2024/02/22 07:51:36;;;;;;;4.43;2.78;;;8.30;99.90;;;;;;7612764;19;20011;-73
2024/02/22 07:54:24;;;;;;;5.03;2.75;;;8.30;99.90;;;;;;7611080;19;20020;-73
2024/02/22 07:56:57;;;;;;;4.78;2.25;;;8.30;99.90;;;;;;7609436;19;20143;-73
2024/02/22 07:59:29;;;;;;;6.50;2.83;;;8.20;99.90;;;;;;7596602;19;21280;-72
2024/02/22 08:02:02;;;;;;;9.73;3.90;;;8.30;99.90;;;;;;7582198;19;20790;-73
2024/02/22 08:04:35;;;;;;;8.38;3.40;;;8.20;99.90;;;;;;7595507;19;20014;-75
2024/02/22 08:07:08;;;;;;;4.22;2.50;;;8.20;99.90;;;;;;7605967;19;20018;-75
2024/02/22 08:09:41;;;;;;;6.13;3.35;;;8.30;99.90;;;;;;7611581;19;20011;-75
2024/02/22 08:12:13;;;;;;;7.88;3.45;;;8.30;99.90;;;;;;7609039;19;20017;-75
2024/02/22 08:14:46;;;;;;;6.63;3.17;;;8.30;99.90;;;;;;7592505;19;20033;-75
2024/02/22 08:17:19;;;;;;;5.53;3.88;;;8.30;99.90;;;;;;7596745;19;20018;-75
2024/02/22 08:19:52;;;;;;;8.95;4.95;;;8.30;99.90;;;;;;7603947;19;20018;-75
2024/02/22 08:22:26;;;;;;;;;;;8.40;99.90;;;;;;6571854;19;9999770;-73
2024/02/22 08:24:58;;;;;;;10.48;4.88;;;8.40;99.90;;;;;;7602279;19;19923;-76
2024/02/22 08:27:30;;;;;;;7.90;4.28;;;8.40;99.90;;;;;;7580446;19;20051;-75
2024/02/22 08:30:03;;;;;;;8.23;4.90;;;8.40;99.90;;;;;;7601806;19;20014;-77
2024/02/22 08:32:36;;;;;;;7.22;3.80;;;8.40;99.90;;;;;;7597117;19;20442;-75
2024/02/22 08:35:08;;;;;;;7.90;4.45;;;8.50;99.90;;;;;;7586446;19;20022;-74
2024/02/22 08:37:42;;;;;;;7.03;4.53;;;8.60;99.90;;;;;;7583261;19;20010;-73
2024/02/22 08:40:14;;;;;;;7.43;4.72;;;8.70;99.90;;;;;;7588144;19;20060;-73
2024/02/22 08:43:08;;;;;;;10.05;4.70;;;8.60;99.90;;;;;;7590955;19;20030;-73
2024/02/22 08:45:40;;;;;;;6.45;4.85;;;8.70;99.90;;;;;;7582839;19;20828;-74
2024/02/22 08:48:14;;;;;;;10.85;5.30;;;8.70;99.90;;;;;;7592340;19;20022;-74
2024/02/22 08:50:47;;;;;;;6.88;4.60;;;8.70;99.90;;;;;;7592992;19;20018;-75
2024/02/22 08:53:19;;;;;;;8.32;4.53;;;8.60;99.90;;;;;;7589585;19;20392;-74
2024/02/22 08:55:52;;;;;;;9.52;5.40;;;8.60;99.90;;;;;;7583344;19;20015;-74
2024/02/22 08:58:25;;;;;;;7.32;4.97;;;8.60;99.90;;;;;;7593470;19;20656;-75
2024/02/22 09:00:57;;;;;;;11.57;6.18;;;8.60;99.90;;;;;;7577520;19;20022;-75
2024/02/22 09:03:31;;;;;;;9.40;5.68;;;8.60;99.90;;;;;;7591781;19;21041;-75
2024/02/22 09:06:03;;;;;;;9.57;5.35;;;8.40;99.90;;;;;;7585189;19;20109;-75
2024/02/22 09:08:39;;;;;;;8.83;4.83;;;8.40;99.90;;;;;;7602074;19;20093;-76
2024/02/22 09:11:12;;;;;;;8.25;5.55;;;8.50;99.90;;;;;;7593493;19;20029;-75
2024/02/22 09:13:44;;;;;;;10.52;5.65;;;8.40;99.90;;;;;;7597999;19;20026;-77
2024/02/22 09:16:20;;;;;;;11.02;5.97;;;8.40;99.90;;;;;;7598165;19;20018;-74
2024/02/22 09:18:52;;;;;;;12.18;6.53;;;8.40;99.90;;;;;;7585787;19;20015;-75
2024/02/22 09:21:27;;;;;;;9.55;5.90;;;8.40;99.90;;;;;;7590857;19;20021;-76
2024/02/22 09:24:00;;;;;;;10.40;6.70;;;8.40;99.90;;;;;;7597801;19;20018;-77
2024/02/22 09:26:35;;;;;;;11.45;5.85;;;8.40;99.90;;;;;;7607988;19;20472;-75
2024/02/22 09:29:08;;;;;;;6.80;4.25;;;8.50;99.90;;;;;;7601474;19;20022;-73
2024/02/22 09:31:41;;;;;;;7.95;4.65;;;8.50;99.90;;;;;;7603611;19;20018;-75
2024/02/22 09:34:14;;;;;;;10.20;5.03;;;8.60;99.90;;;;;;7597902;19;20114;-74
2024/02/22 09:36:47;;;;;;;8.77;5.25;;;8.60;99.90;;;;;;7628557;19;20018;-74
2024/02/22 09:39:23;;;;;;;9.73;4.88;;;8.50;99.90;;;;;;7638187;19;20018;-76
2024/02/22 09:41:56;;;;;;;10.07;5.38;;;8.60;99.90;;;;;;7619001;19;20543;-76
2024/02/22 09:44:32;;;;;;;12.32;6.03;;;8.60;99.90;;;;;;7602365;19;21386;-75
2024/02/22 09:47:08;;;;;;;9.07;5.57;;;8.60;99.90;;;;;;7597797;19;20029;-75
2024/02/22 09:49:41;;;;;;;10.00;5.18;;;8.60;99.90;;;;;;7605597;19;20014;-75
2024/02/22 09:52:14;;;;;;;10.52;5.13;;;8.60;99.90;;;;;;7604948;19;20019;-75
2024/02/22 09:54:47;;;;;;;9.07;5.60;;;8.60;99.90;;;;;;7604442;19;20015;-76
2024/02/22 09:57:20;;;;;;;9.00;5.35;;;8.60;99.90;;;;;;7600541;19;20022;-74
2024/02/22 09:59:52;;;;;;;7.55;4.93;;;8.60;99.90;;;;;;7604653;19;20817;-75
2024/02/22 10:02:25;;;;;;;8.07;5.28;;;8.60;99.90;;;;;;7604636;19;20114;-76
2024/02/22 10:05:00;;;;;;;10.05;4.93;;;8.60;99.90;;;;;;7602663;19;20022;-75
2024/02/22 10:07:35;;;;;;;14.35;5.90;;;8.70;99.90;;;;;;7604970;19;20051;-76
2024/02/22 10:10:08;;;;;;;12.55;6.43;;;8.70;99.90;;;;;;7598429;19;20018;-75
2024/02/22 10:12:43;;;;;;;9.57;4.72;;;8.70;99.90;;;;;;7607096;19;20361;-75
2024/02/22 10:15:25;;;;;;;9.60;5.03;;;8.70;99.90;;;;;;7598087;19;20052;-74
2024/02/22 10:17:59;;;;;;;10.10;4.95;;;8.70;99.90;;;;;;7640693;19;20033;-75
2024/02/22 10:20:32;;;;;;;10.05;5.45;;;8.70;99.90;;;;;;7613648;19;20026;-75
2024/02/22 10:23:10;;;;;;;7.75;4.88;;;8.80;99.90;;;;;;7603931;19;20022;-76
2024/02/22 10:25:43;;;;;;;10.05;5.60;;;8.70;99.90;;;;;;7598065;19;20018;-74
2024/02/22 10:28:15;;;;;;;7.85;4.70;;;8.70;99.90;;;;;;7600822;19;21193;-75
2024/02/22 10:30:48;;;;;;;10.63;5.57;;;8.80;99.90;;;;;;7603584;19;20018;-75
2024/02/22 10:33:22;;;;;;;10.75;5.43;;;8.80;99.90;;;;;;7594799;19;20018;-76
2024/02/22 10:35:54;;;;;;;11.25;5.60;;;8.90;99.90;;;;;;7607900;19;20093;-74
2024/02/22 10:38:31;;;;;;;13.15;5.97;;;8.90;99.90;;;;;;7598833;19;20023;-75
2024/02/22 10:41:05;;;;;;;11.73;6.45;;;9.00;99.90;;;;;;7604570;19;20426;-75
2024/02/22 10:43:43;;;;;;;13.40;6.60;;;9.00;99.90;;;;;;7605456;19;20015;-75
2024/02/22 10:46:17;;;;;;;11.23;5.60;;;9.00;99.90;;;;;;7585066;19;20026;-74
2024/02/22 10:48:53;;;;;;;10.43;5.93;;;8.90;99.90;;;;;;7608154;19;20034;-76
2024/02/22 10:51:29;;;;;;;14.02;6.60;;;8.90;99.90;;;;;;7591430;19;20018;-75
2024/02/22 10:54:05;;;;;;;9.93;6.25;;;8.90;99.90;;;;;;7594675;19;20019;-75
2024/02/22 10:56:43;;;;;;;11.10;5.20;;;8.90;99.90;;;;;;7605152;19;20389;-75
2024/02/22 10:59:20;;;;;;;9.38;5.68;;;8.90;99.90;;;;;;7608586;19;21051;-76
2024/02/22 11:01:53;;;;;;;10.32;5.70;;;9.00;99.90;;;;;;7605126;19;20029;-76
2024/02/22 11:04:26;;;;;;;9.77;5.20;;;9.00;99.90;;;;;;7593774;19;20014;-76
2024/02/22 11:07:05;;;;;;;13.85;6.35;;;9.10;99.90;;;;;;7597315;19;20019;-76
2024/02/22 11:09:40;;;;;;;10.40;5.97;;;9.10;99.90;;;;;;7602830;19;20474;-76
2024/02/22 11:12:13;;;;;;;17.02;6.38;;;9.20;99.90;;;;;;7587613;19;20010;-76
2024/02/22 11:14:46;;;;;;;11.85;5.90;;;9.40;99.90;;;;;;7540200;19;20018;-75
2024/02/22 11:17:21;;;;;;;13.18;5.22;;;9.60;99.90;;;;;;7597950;19;20026;-76
2024/02/22 11:20:08;;;;;;;16.95;5.47;;;9.70;99.90;;;;;;7612423;19;20998;-75
2024/02/22 11:22:41;;;;;;;12.82;5.40;;;9.90;99.90;;;;;;7607378;19;20543;-75
2024/02/22 11:25:14;;;;;;;11.57;5.60;;;10.00;99.90;;;;;;7605972;19;21518;-76
2024/02/22 11:28:00;;;;;;;11.02;5.53;;;10.10;99.90;;;;;;7613842;19;20512;-74
2024/02/22 11:30:33;;;;;;;10.02;4.95;;;10.20;99.90;;;;;;7607464;19;20026;-75
2024/02/22 11:33:08;;;;;;;9.10;4.93;;;10.20;99.90;;;;;;6587346;19;10000286;-76
2024/02/22 11:35:40;;;;;;;8.27;4.00;;;10.10;99.90;;;;;;7607816;19;20044;-76
2024/02/22 11:38:20;;;;;;;13.20;4.70;;;10.20;99.90;;;;;;7600238;19;20014;-76
2024/02/22 11:40:53;;;;;;;13.45;4.40;;;10.30;99.90;;;;;;7610267;19;20023;-76
2024/02/22 11:43:26;;;;;;;7.63;3.63;;;10.50;99.90;;;;;;7596260;19;20018;-75
2024/02/22 11:46:00;;;;;;;7.68;4.55;;;10.60;99.90;;;;;;7603177;19;20018;-75
2024/02/22 11:48:33;;;;;;;10.85;4.00;;;10.70;99.90;;;;;;7595648;19;20059;-75
2024/02/22 11:51:07;;;;;;;10.23;4.65;;;10.80;99.90;;;;;;7580491;19;20024;-74
2024/02/22 11:53:41;;;;;;;9.60;3.92;;;10.90;99.90;;;;;;7595663;19;20018;-73
2024/02/22 11:56:13;;;;;;;10.68;4.70;;;11.00;99.90;;;;;;7597611;19;20109;-76
2024/02/22 11:58:45;;;;;;;12.48;4.32;;;11.10;99.90;;;;;;7609121;19;20058;-75
2024/02/22 12:01:18;;;;;;;7.22;4.00;;;11.10;99.90;;;;;;7602447;19;20021;-75
2024/02/22 12:03:52;;;;;;;10.45;3.72;;;11.30;99.90;;;;;;7598566;19;20030;-76
2024/02/22 12:06:25;;;;;;;11.93;4.32;;;11.40;99.90;;;;;;7592201;19;20014;-76
2024/02/22 12:08:58;;;;;;;7.53;3.77;;;11.50;99.90;;;;;;7609001;19;20018;-76
2024/02/22 12:11:31;;;;;;;10.30;3.38;;;11.60;99.90;;;;;;7595822;19;20014;-77
2024/02/22 12:14:03;;;;;;;7.97;4.15;;;11.70;99.90;;;;;;7591012;19;20507;-75
2024/02/22 12:16:39;;;;;;;7.40;3.72;;;11.80;99.90;;;;;;7606562;19;20677;-76
2024/02/22 12:19:18;;;;;;;9.10;3.50;;;11.90;99.90;;;;;;7593170;19;20006;-73
2024/02/22 12:21:51;;;;;;;10.00;4.10;;;11.90;99.90;;;;;;7567465;19;20026;-76
2024/02/22 12:24:27;;;;;;;6.43;3.03;;;11.90;99.90;;;;;;7579545;19;21088;-73
2024/02/22 12:27:02;;;;;;;6.82;2.95;;;12.00;99.90;;;;;;7582972;19;20626;-73
2024/02/22 12:29:35;;;;;;;16.45;4.47;;;12.00;99.90;;;;;;7576396;19;20023;-74
2024/02/22 12:32:08;;;;;;;6.00;3.67;;;12.10;99.90;;;;;;7574515;19;20014;-74
2024/02/22 12:34:40;;;;;;;7.43;4.13;;;12.20;99.90;;;;;;7578957;19;20018;-73
2024/02/22 12:37:14;;;;;;;5.53;3.80;;;12.30;99.90;;;;;;7582533;19;20014;-74
2024/02/22 12:39:50;;;;;;;4.63;3.00;;;12.40;99.90;;;;;;7582370;19;20029;-74
2024/02/22 12:42:22;;;;;;;11.40;3.80;;;12.50;99.90;;;;;;7561268;19;20037;-74
2024/02/22 12:44:55;;;;;;;4.75;2.70;;;12.50;99.90;;;;;;7574758;19;20337;-74
2024/02/22 12:47:28;;;;;;;5.50;3.38;;;12.50;99.90;;;;;;7582696;19;20014;-74
2024/02/22 12:50:01;;;;;;;4.47;3.00;;;12.60;99.90;;;;;;7581767;19;20022;-74
2024/02/22 12:52:33;;;;;;;5.03;3.20;;;12.60;99.90;;;;;;7579790;19;20025;-74
2024/02/22 12:55:06;;;;;;;3.55;2.80;;;12.50;99.90;;;;;;7580177;19;20018;-74
2024/02/22 12:57:38;;;;;;;7.65;3.08;;;12.50;99.90;;;;;;7569913;19;20054;-74
2024/02/22 13:00:13;;;;;;;3.63;2.60;;;12.60;99.90;;;;;;7590267;19;20053;-73
2024/02/22 13:02:46;;;;;;;4.47;3.58;;;12.60;99.90;;;;;;7562873;19;20880;-73
2024/02/22 13:05:21;;;;;;;3.50;2.50;;;12.60;99.90;;;;;;7581634;19;20089;-73
2024/02/22 13:07:55;;;;;;;4.55;2.97;;;12.60;99.90;;;;;;7554990;19;20019;-74
2024/02/22 13:10:27;;;;;;;;;;;12.50;99.90;;;;;;7516937;19;20025;-74
2024/02/22 13:13:00;;;;;;;4.78;2.60;;;12.60;99.90;;;;;;7550690;19;19925;-74
2024/02/22 13:15:33;;;;;;;3.45;2.25;;;12.60;99.90;;;;;;7581473;19;20853;-74
2024/02/22 13:18:06;;;;;;;4.00;2.65;;;12.60;99.90;;;;;;7600922;19;20341;-74
2024/02/22 13:20:39;;;;;;;3.20;2.20;;;12.60;99.90;;;;;;7559648;19;20018;-74
2024/02/22 13:23:12;;;;;;;5.20;3.40;;;12.60;99.90;;;;;;7569015;19;20037;-74
2024/02/22 13:25:44;;;;;;;5.18;3.15;;;12.60;99.90;;;;;;7561508;19;20295;-72
2024/02/22 13:28:17;;;;;;;8.07;4.35;;;12.60;99.90;;;;;;7577520;19;20018;-71